Time;durP1;ratioP1;P1;durP2;ratioP2;P2;SDS_P1;SDS_P2;PMS_P1;PMS_P2;Temp;Humidity;BMP_temperature;BMP_pressure;BME280_temperature;BME280_humidity;BME280_pressure;Samples;Min_cycle;Max_cycle;Signal;HPM_P1;HPM_P2
2022/05/24 00:02:17;;;;;;;36.65;29.48;;;;;;;14.07;100.00;68337.03;5054174;28;20090;-81
2022/05/24 00:04:43;;;;;;;38.28;27.95;;;;;;;14.12;100.00;68342.72;5051495;28;20037;-79
2022/05/24 00:07:08;;;;;;;34.45;26.20;;;;;;;;;;5054423;28;20604;-81
2022/05/24 00:09:34;;;;;;;33.97;25.63;;;;;;;14.04;100.00;68333.63;5051032;28;20101;-78
2022/05/24 00:11:59;;;;;;;34.85;25.98;;;;;;;;;;5053291;28;20045;-81
2022/05/24 00:17:13;;;;;;;34.10;26.17;;;;;;;14.02;100.00;68331.34;5013637;28;20069;-81
2022/05/24 00:19:39;;;;;;;34.05;24.95;;;;;;;14.06;100.00;68330.53;5036147;28;20091;-80
2022/05/24 00:22:04;;;;;;;36.03;27.90;;;;;;;14.01;100.00;68330.19;5041437;28;20033;-78
2022/05/24 00:24:29;;;;;;;34.35;26.73;;;;;;;14.14;100.00;68344.44;5036636;28;20037;-78
2022/05/24 00:26:55;;;;;;;35.58;26.08;;;;;;;14.23;100.00;68354.69;5049036;28;20041;-81
2022/05/24 00:29:20;;;;;;;33.95;24.02;;;;;;;14.23;100.00;68355.25;5034910;28;20521;-81
2022/05/24 00:31:47;;;;;;;32.88;25.00;;;;;;;14.21;100.00;68355.66;5051465;28;20037;-81
2022/05/24 00:34:12;;;;;;;34.35;24.92;;;;;;;14.26;100.00;68358.09;5053498;28;20559;-78
2022/05/24 00:36:38;;;;;;;33.55;25.67;;;;;;;14.22;100.00;68354.13;5052136;28;20083;-80
2022/05/24 00:39:04;;;;;;;36.30;27.75;;;;;;;14.27;100.00;68358.66;5053049;28;20097;-81
2022/05/24 00:41:40;;;;;;;38.25;26.15;;;;;;;14.23;100.00;68349.88;5036313;28;20041;-79
2022/05/24 00:44:14;;;;;;;34.67;25.30;;;;;;;14.18;100.00;68348.97;5035152;28;20053;-79
2022/05/24 00:46:58;;;;;;;38.35;27.83;;;;;;;14.18;100.00;68344.22;5043859;28;20047;-80
2022/05/24 00:49:30;;;;;;;37.58;28.30;;;;;;;14.17;100.00;68342.50;5052815;28;20048;-76
2022/05/24 00:52:03;;;;;;;37.25;27.40;;;;;;;14.10;100.00;68340.47;5033354;28;20057;-80
2022/05/24 00:54:29;;;;;;;40.55;29.13;;;;;;;14.07;100.00;68342.41;5033514;28;20048;-77
2022/05/24 00:57:17;;;;;;;40.83;31.65;;;;;;;14.13;100.00;68343.31;5054243;28;20477;-79
2022/05/24 00:59:54;;;;;;;38.92;30.25;;;;;;;14.20;100.00;68353.94;5051727;28;20029;-79
2022/05/24 01:02:19;;;;;;;40.72;27.50;;;;;;;14.16;100.00;68347.28;5045291;28;20040;-78
2022/05/24 01:04:45;;;;;;;42.45;29.35;;;;;;;;;;5049939;28;20053;-76
2022/05/24 01:07:10;;;;;;;46.97;31.83;;;;;;;14.16;100.00;68347.28;5064854;22;20049;-79
2022/05/24 01:10:01;;;;;;;43.92;30.42;;;;;;;14.17;100.00;68342.50;5023818;28;20052;-80
2022/05/24 01:12:51;;;;;;;42.42;30.67;;;;;;;14.13;100.00;68343.88;5022435;28;20045;-81
2022/05/24 01:15:19;;;;;;;46.42;33.45;;;;;;;14.15;100.00;68350.91;5030119;28;20055;-81
2022/05/24 01:17:46;;;;;;;47.85;32.08;;;;;;;14.13;100.00;68343.88;5029473;28;20061;-80
2022/05/24 01:20:13;;;;;;;45.97;32.65;;;;;;;14.21;100.00;68352.41;5020896;28;20065;-79
2022/05/24 01:22:47;;;;;;;46.97;32.58;;;;;;;;;;5028419;28;20046;-82
2022/05/24 01:25:24;;;;;;;48.17;33.25;;;;;;;14.25;100.00;68356.41;5028009;28;20041;-80
2022/05/24 01:27:50;;;;;;;50.30;34.38;;;;;;;;;;5035697;28;20514;-82
2022/05/24 01:30:15;;;;;;;51.47;33.38;;;;;;;14.17;100.00;68351.09;5029689;28;20076;-82
2022/05/24 01:38:15;;;;;;;52.08;37.05;;;;;;;14.24;100.00;68355.81;5041264;28;20053;-82
2022/05/24 01:40:41;;;;;;;51.30;34.15;;;;;;;14.27;100.00;68361.91;5023960;28;20057;-82
2022/05/24 01:43:07;;;;;;;53.92;35.58;;;;;;;14.30;100.00;68362.06;5014351;28;20049;-81
2022/05/24 01:45:37;;;;;;;52.22;35.70;;;;;;;;;;5016411;28;20045;-83
2022/05/24 01:48:05;;;;;;;54.05;36.03;;;;;;;;;;5038527;28;20056;-84
2022/05/24 01:50:31;;;;;;;59.53;37.53;;;;;;;;;;5040963;28;20083;-83
2022/05/24 01:53:03;;;;;;;56.08;37.15;;;;;;;14.29;100.00;68363.63;5025652;28;20037;-83
2022/05/24 01:55:31;;;;;;;58.15;37.65;;;;;;;;;;5021935;28;20405;-83
2022/05/24 01:58:02;;;;;;;63.47;38.67;;;;;;;14.24;100.00;68355.81;5011597;28;20045;-82
2022/05/24 02:00:28;;;;;;;62.92;42.05;;;;;;;14.22;100.00;68353.53;5017110;28;20045;-83
2022/05/24 02:02:53;;;;;;;61.70;41.60;;;;;;;14.26;100.00;68360.75;5025589;28;20410;-81
2022/05/24 02:05:34;;;;;;;59.67;38.05;;;;;;;14.27;100.00;68358.66;5028545;28;20487;-83
2022/05/24 02:08:00;;;;;;;63.90;42.05;;;;;;;14.30;100.00;68367.41;5025762;28;20045;-81
2022/05/24 02:10:30;;;;;;;63.33;43.13;;;;;;;14.27;100.00;68361.91;5016352;28;20090;-82
2022/05/24 02:12:59;;;;;;;61.13;39.47;;;;;;;14.26;100.00;68352.16;5029177;28;20033;-81
2022/05/24 02:15:29;;;;;;;59.45;40.30;;;;;;;14.32;100.00;68364.34;5010810;28;20380;-82
2022/05/24 02:18:07;;;;;;;61.88;42.65;;;;;;;14.28;100.00;68360.38;5014440;28;20105;-82
2022/05/24 02:20:36;;;;;;;64.72;42.08;;;;;;;14.24;100.00;68358.47;5012938;28;20046;-82
2022/05/24 02:23:02;;;;;;;57.65;36.97;;;;;;;14.25;100.00;68362.31;5020529;28;20417;-83
2022/05/24 02:25:47;;;;;;;53.75;36.45;;;;;;;14.26;100.00;68357.53;5029056;28;20048;-83
2022/05/24 02:28:14;;;;;;;53.78;34.78;;;;;;;14.19;100.00;68350.69;5012037;28;20057;-82
2022/05/24 02:30:45;;;;;;;51.00;36.80;;;;;;;;;;5012701;28;20078;-83
2022/05/24 02:33:10;;;;;;;51.88;35.38;;;;;;;14.16;100.00;68349.97;5031278;28;20120;-81
2022/05/24 02:35:36;;;;;;;49.40;32.80;;;;;;;14.12;100.00;68342.16;5026164;28;20112;-83
2022/05/24 02:38:02;;;;;;;55.35;34.95;;;;;;;14.14;100.00;68344.44;5029928;28;20053;-84
2022/05/24 02:43:11;;;;;;;49.67;34.75;;;;;;;14.17;100.00;68342.50;5023357;28;20040;-81
2022/05/24 02:45:36;;;;;;;51.47;34.35;;;;;;;14.25;100.00;68351.59;5030085;28;20029;-81
2022/05/24 02:48:02;;;;;;;51.03;32.58;;;;;;;14.17;100.00;68351.09;5029515;28;20516;-83
2022/05/24 02:50:28;;;;;;;51.30;34.67;;;;;;;14.17;100.00;68348.41;5032414;28;20038;-82
2022/05/24 02:52:54;;;;;;;50.83;35.55;;;;;;;14.11;100.00;68341.59;5022605;28;20045;-82
2022/05/24 02:55:19;;;;;;;53.70;35.05;;;;;;;14.18;100.00;68354.91;5030992;28;20468;-82
2022/05/24 02:57:44;;;;;;;50.10;35.38;;;;;;;14.16;100.00;68347.28;5023175;28;20112;-83
2022/05/24 03:00:14;;;;;;;48.78;33.00;;;;;;;14.16;100.00;68349.41;5028034;28;20064;-82
2022/05/24 03:02:40;;;;;;;41.88;29.52;;;;;;;14.03;100.00;68334.59;5023963;28;20041;-82
2022/05/24 03:05:07;;;;;;;46.20;33.28;;;;;;;13.98;100.00;68326.78;5031244;28;20201;-82
2022/05/24 03:10:17;;;;;;;39.95;29.55;;;;;;;13.86;100.00;68307.78;5023993;28;20056;-82
2022/05/24 03:15:26;;;;;;;40.75;29.05;;;;;;;14.04;100.00;68333.63;5019492;28;20100;-82
2022/05/24 03:17:51;;;;;;;41.85;31.17;;;;;;;13.91;100.00;68319.41;5030007;28;20045;-81
2022/05/24 03:20:17;;;;;;;41.60;29.40;;;;;;;;;;5022557;28;20041;-83
2022/05/24 03:22:42;;;;;;;43.37;29.23;;;;;;;13.96;100.00;68324.53;5028874;28;20490;-83
2022/05/24 03:25:07;;;;;;;39.60;27.77;;;;;;;13.97;100.00;68326.22;5029953;28;20265;-81
2022/05/24 03:27:33;;;;;;;43.35;28.73;;;;;;;13.92;100.00;68319.97;5028813;28;20478;-82
2022/05/24 03:29:58;;;;;;;37.85;28.48;;;;;;;;;;5031053;28;20116;-83
2022/05/24 03:32:24;;;;;;;34.83;25.65;;;;;;;13.83;100.00;68309.72;5030297;28;20068;-84
2022/05/24 03:34:49;;;;;;;35.97;25.83;;;;;;;;;;5022733;28;20075;-82
2022/05/24 03:37:14;;;;;;;35.40;24.52;;;;;;;13.81;100.00;68307.44;5024478;28;20041;-83
2022/05/24 03:39:40;;;;;;;33.33;23.17;;;;;;;13.80;100.00;68309.00;5014912;28;20038;-83
2022/05/24 03:42:06;;;;;;;35.47;25.55;;;;;;;13.76;100.00;68302.91;5020486;28;20080;-84
2022/05/24 03:44:31;;;;;;;30.02;19.98;;;;;;;13.72;100.00;68301.03;5019067;28;20679;-83
2022/05/24 03:46:56;;;;;;;27.98;18.42;;;;;;;;;;5024832;28;20048;-82
2022/05/24 03:49:22;;;;;;;23.73;17.73;;;;;;;13.63;100.00;68288.09;5025972;28;20088;-83
2022/05/24 03:51:48;;;;;;;21.77;15.55;;;;;;;13.59;100.00;68283.00;5015275;28;20887;-82
2022/05/24 03:54:14;;;;;;;23.90;15.90;;;;;;;13.50;100.00;68273.31;5022787;28;20083;-84
2022/05/24 03:57:59;;;;;;;21.38;14.63;;;;;;;13.45;100.00;68267.63;5016546;28;20041;-84
2022/05/24 03:59:27;;;;;;;21.80;13.60;;;;;;;13.44;100.00;68266.50;5027832;28;20631;-81
2022/05/24 04:01:52;;;;;;;17.83;11.20;;;;;;;13.36;100.00;68260.06;5022863;28;20046;-83
2022/05/24 04:04:17;;;;;;;16.67;11.18;;;;;;;;;;5022969;28;20484;-80
2022/05/24 04:06:43;;;;;;;15.95;10.35;;;;;;;13.28;100.00;68252.09;5026201;28;20050;-83
2022/05/24 04:09:08;;;;;;;19.02;11.02;;;;;;;13.40;100.00;68264.63;5029113;28;20448;-82
2022/05/24 04:11:34;;;;;;;19.38;9.32;;;;;;;13.41;100.00;68263.09;5024495;28;20499;-81
2022/05/24 04:14:00;;;;;;;13.70;8.25;;;;;;;13.36;100.00;68252.06;5027168;28;20049;-82
2022/05/24 04:16:25;;;;;;;19.48;10.27;;;;;;;13.30;100.00;68251.72;5022499;28;20034;-85
2022/05/24 04:18:51;;;;;;;15.43;9.85;;;;;;;13.30;100.00;68251.72;5015167;28;20105;-83
2022/05/24 04:21:16;;;;;;;17.40;9.63;;;;;;;;;;5028929;28;20414;-80
2022/05/24 04:23:42;;;;;;;19.27;9.97;;;;;;;13.32;100.00;68254.00;5027308;28;20095;-80
2022/05/24 04:26:07;;;;;;;17.00;10.38;;;;;;;13.29;100.00;68250.59;5028276;28;20640;-80
2022/05/24 04:28:34;;;;;;;16.77;10.85;;;;;;;13.36;100.00;68260.06;5028778;28;20049;-80
2022/05/24 04:30:59;;;;;;;17.20;10.82;;;;;;;13.39;100.00;68260.81;5022965;28;20068;-79
2022/05/24 04:33:25;;;;;;;18.27;11.88;;;;;;;13.30;100.00;68251.72;5024308;28;20033;-79
2022/05/24 04:35:51;;;;;;;17.25;10.07;;;;;;;13.20;100.00;68239.75;5025210;28;20054;-79
2022/05/24 04:38:17;;;;;;;16.83;9.55;;;;;;;;;;5024142;28;20454;-81
2022/05/24 04:43:33;;;;;;;16.27;9.50;;;;;;;13.10;100.00;68228.94;5014955;28;20038;-81
2022/05/24 04:45:59;;;;;;;11.30;8.05;;;;;;;13.10;100.00;68231.63;5009533;28;20041;-81
2022/05/24 04:48:24;;;;;;;15.65;8.48;;;;;;;;;;5009479;28;20052;-82
2022/05/24 04:50:55;;;;;;;18.23;9.38;;;;;;;13.16;100.00;68237.88;5029240;28;20124;-81
2022/05/24 04:53:21;;;;;;;13.85;7.97;;;;;;;13.12;100.00;68233.31;5018211;28;20060;-81
2022/05/24 04:55:49;;;;;;;16.30;8.60;;;;;;;;;;5026904;28;20136;-83
2022/05/24 04:58:15;;;;;;;16.38;8.45;;;;;;;13.10;100.00;68229.50;5025786;28;20033;-81
2022/05/24 05:00:40;;;;;;;17.17;8.13;;;;;;;13.08;100.00;68227.22;5024732;28;20077;-81
2022/05/24 05:03:09;;;;;;;17.52;8.45;;;;;;;;;;5041041;28;20060;-81
2022/05/24 05:05:34;;;;;;;15.80;8.85;;;;;;;13.06;100.00;68224.38;5041831;28;20033;-81
2022/05/24 05:07:59;;;;;;;16.23;10.90;;;;;;;13.07;100.00;68230.88;5023888;28;20044;-80
2022/05/24 05:10:25;;;;;;;17.55;11.10;;;;;;;12.98;99.91;68215.88;5025115;28;20068;-81
2022/05/24 05:12:50;;;;;;;15.55;11.48;;;;;;;12.86;99.89;68202.22;5028767;28;20045;-80
2022/05/24 05:15:16;;;;;;;18.15;10.45;;;;;;;12.90;100.00;68208.88;5043227;28;20048;-83
2022/05/24 05:17:42;;;;;;;17.58;10.20;;;;;;;12.85;100.00;68201.66;5040847;28;20128;-81
2022/05/24 05:20:08;;;;;;;18.63;11.18;;;;;;;12.87;100.00;68203.94;5027223;28;20542;-79
2022/05/24 05:22:33;;;;;;;16.25;10.98;;;;;;;12.84;100.00;68200.53;5021947;28;20041;-81
2022/05/24 05:24:58;;;;;;;18.35;10.82;;;;;;;12.87;100.00;68209.28;5026697;28;20055;-81
2022/05/24 05:27:24;;;;;;;16.00;10.25;;;;;;;12.85;100.00;68201.09;5035593;28;20131;-83
2022/05/24 05:32:33;;;;;;;18.67;11.40;;;;;;;12.90;100.00;68206.78;5046006;28;20051;-81
2022/05/24 05:34:59;;;;;;;20.00;11.55;;;;;;;12.92;100.00;68208.47;5038119;28;20124;-80
2022/05/24 05:37:29;;;;;;;19.58;12.20;;;;;;;12.87;100.00;68203.94;5029006;28;20131;-80
2022/05/24 05:39:55;;;;;;;18.23;11.55;;;;;;;12.91;100.00;68212.69;5032548;28;20060;-82
2022/05/24 05:42:21;;;;;;;22.52;13.35;;;;;;;;;;5022897;28;20490;-83
2022/05/24 05:44:50;;;;;;;19.88;13.13;;;;;;;12.92;100.00;68208.47;5032217;28;20037;-81
2022/05/24 05:47:16;;;;;;;20.02;12.00;;;;;;;12.95;100.00;68203.88;5020421;28;20040;-82
2022/05/24 05:49:42;;;;;;;22.42;12.85;;;;;;;13.00;100.00;68220.81;5021947;28;20528;-82
2022/05/24 05:52:08;;;;;;;23.77;13.38;;;;;;;13.00;100.00;68220.25;5014861;28;20057;-83
2022/05/24 05:54:33;;;;;;;18.30;12.20;;;;;;;13.04;100.00;68216.78;5029717;28;20042;-85
2022/05/24 05:57:00;;;;;;;22.17;13.55;;;;;;;13.09;100.00;68231.06;5029826;28;20038;-83
2022/05/24 05:59:25;;;;;;;18.83;12.93;;;;;;;;;;5014356;28;20042;-83
2022/05/24 06:01:50;;;;;;;18.38;12.00;;;;;;;13.07;100.00;68225.53;5012414;28;20046;-84
2022/05/24 06:04:16;;;;;;;24.02;12.32;;;;;;;13.06;100.00;68224.97;5021672;28;20558;-81
2022/05/24 06:06:45;;;;;;;19.58;13.95;;;;;;;13.05;100.00;68223.25;5013976;28;20560;-84
2022/05/24 06:09:11;;;;;;;24.95;14.90;;;;;;;13.08;100.00;68226.66;5029294;28;20049;-80
2022/05/24 06:11:36;;;;;;;19.63;12.88;;;;;;;13.13;100.00;68231.78;5033161;28;20041;-82
2022/05/24 06:14:02;;;;;;;23.40;13.20;;;;;;;13.12;100.00;68231.22;5041211;28;20305;-82
2022/05/24 06:16:27;;;;;;;19.92;12.35;;;;;;;13.12;100.00;68233.31;5033071;28;20045;-82
2022/05/24 06:18:53;;;;;;;19.35;13.35;;;;;;;13.10;100.00;68231.63;5026512;28;20053;-82
2022/05/24 06:21:18;;;;;;;23.15;12.13;;;;;;;;;;5033893;28;20383;-82
2022/05/24 06:23:43;;;;;;;20.63;14.50;;;;;;;;;;5027792;28;20581;-84
2022/05/24 06:26:08;;;;;;;21.00;13.50;;;;;;;13.13;100.00;68231.78;5031870;28;20649;-81
2022/05/24 06:28:34;;;;;;;21.92;14.40;;;;;;;13.14;100.00;68232.91;5031228;28;20288;-83
2022/05/24 06:30:59;;;;;;;22.80;13.98;;;;;;;13.07;100.00;68228.22;5051951;28;20056;-80
2022/05/24 06:33:25;;;;;;;23.67;14.02;;;;;;;13.07;100.00;68228.78;5041354;28;20037;-82
2022/05/24 06:35:50;;;;;;;19.75;13.52;;;;;;;13.01;100.00;68221.38;5032243;28;20440;-82
2022/05/24 06:38:16;;;;;;;22.77;15.77;;;;;;;13.03;100.00;68226.31;5031153;28;20033;-82
2022/05/24 06:40:42;;;;;;;21.38;15.82;;;;;;;13.00;100.00;68220.25;5021286;28;20403;-81
2022/05/24 06:43:07;;;;;;;26.58;15.55;;;;;;;12.99;100.00;68216.44;5022673;28;20044;-82
2022/05/24 06:45:34;;;;;;;20.27;14.40;;;;;;;12.97;100.00;68214.16;5047847;28;20037;-85
2022/05/24 06:47:59;;;;;;;22.00;14.60;;;;;;;12.94;100.00;68216.66;5038742;28;20052;-82
2022/05/24 06:50:25;;;;;;;24.13;15.55;;;;;;;12.95;100.00;68211.91;5028526;28;20042;-82
2022/05/24 06:52:55;;;;;;;22.98;17.20;;;;;;;12.99;100.00;68221.78;5032980;28;20052;-83
2022/05/24 06:55:21;;;;;;;22.65;15.50;;;;;;;;;;5050182;28;20049;-81
2022/05/24 06:57:47;;;;;;;21.75;13.95;;;;;;;12.93;100.00;68209.63;5034219;28;20045;-80
2022/05/24 07:03:08;;;;;;;23.67;15.35;;;;;;;12.87;100.00;68203.94;5050068;28;20043;-80
2022/05/24 07:05:34;;;;;;;22.13;16.00;;;;;;;12.84;100.00;68202.63;5052033;28;20049;-81
2022/05/24 07:08:01;;;;;;;20.65;14.38;;;;;;;12.81;100.00;68197.09;5048651;23;20571;-88
2022/05/24 07:10:27;;;;;;;25.20;16.92;;;;;;;12.81;100.00;68197.09;5028047;28;20141;-89
2022/05/24 07:13:18;;;;;;;21.13;14.98;;;;;;;12.79;100.00;68194.25;5029712;28;20066;-89
2022/05/24 07:15:43;;;;;;;23.55;14.55;;;;;;;12.73;100.00;68188.00;5026064;28;20061;-88
2022/05/24 07:18:08;;;;;;;19.48;13.20;;;;;;;12.76;100.00;68193.53;5027088;28;20066;-88
2022/05/24 07:20:36;;;;;;;19.15;13.50;;;;;;;12.71;100.00;68180.38;5009555;28;20439;-89
2022/05/24 07:23:10;;;;;;;16.42;12.00;;;;;;;12.77;100.00;68192.56;5029287;28;20033;-88
2022/05/24 07:25:36;;;;;;;16.98;11.73;;;;;;;12.73;100.00;68193.34;5015739;28;20060;-90
2022/05/24 07:28:03;;;;;;;22.25;12.88;;;;;;;12.78;100.00;68193.13;5011213;28;20499;-88
2022/05/24 07:30:30;;;;;;;17.50;11.68;;;;;;;12.84;100.00;68199.94;5009656;28;20050;-88
2022/05/24 07:32:55;;;;;;;19.98;11.80;;;;;;;12.87;100.00;68203.94;5008860;28;20057;-89
2022/05/24 07:35:21;;;;;;;15.50;10.20;;;;;;;12.86;100.00;68208.13;5008562;28;20074;-89
2022/05/24 07:37:46;;;;;;;15.38;10.95;;;;;;;12.94;100.00;68211.31;5023396;28;20095;-88
2022/05/24 07:45:48;;;;;;;16.38;8.45;;;;;;;13.09;99.03;68233.16;5026371;28;20052;-89
2022/05/24 07:48:15;;;;;;;14.30;7.68;;;;;;;13.17;98.37;68236.34;5023981;28;20051;-87
2022/05/24 07:50:41;;;;;;;9.75;6.97;;;;;;;13.23;97.17;68246.38;5025454;28;20115;-88
2022/05/24 07:53:08;;;;;;;13.23;6.72;;;;;;;13.31;97.78;68252.28;5027453;28;20417;-89
2022/05/24 07:55:34;;;;;;;10.93;5.53;;;;;;;13.29;96.65;68252.66;5028904;28;20033;-89
2022/05/24 07:57:59;;;;;;;10.05;5.40;;;;;;;13.30;95.64;68251.72;5028308;28;20049;-90
2022/05/24 08:00:25;;;;;;;8.02;5.32;;;;;;;13.34;95.56;68255.69;5025296;28;20037;-88
2022/05/24 08:02:54;;;;;;;8.48;5.88;;;;;;;13.26;94.35;68239.16;5016771;28;20046;-88
2022/05/24 08:05:20;;;;;;;11.90;6.82;;;;;;;13.26;95.06;68247.16;5028320;28;20049;-88
2022/05/24 08:07:46;;;;;;;9.40;5.57;;;;;;;13.29;94.47;68250.00;5026228;28;20123;-89
2022/05/24 08:10:12;;;;;;;11.02;5.35;;;;;;;13.37;94.53;68261.22;5029359;28;20033;-89
2022/05/24 08:12:38;;;;;;;8.02;5.93;;;;;;;13.45;93.95;68267.63;5018033;28;20418;-88
2022/05/24 08:15:05;;;;;;;9.02;5.47;;;;;;;13.47;92.87;68269.91;5019977;28;20041;-88
2022/05/24 08:17:30;;;;;;;7.60;4.97;;;;;;;13.52;92.67;68275.59;5016735;28;20068;-88
2022/05/24 08:19:55;;;;;;;9.45;5.22;;;;;;;;;;5007939;28;20057;-88
2022/05/24 08:22:21;;;;;;;11.23;5.13;;;;;;;13.51;90.74;68269.09;5011365;28;20333;-89
2022/05/24 08:24:46;;;;;;;7.00;4.63;;;;;;;;;;5026257;28;20468;-88
2022/05/24 08:27:14;;;;;;;7.88;4.22;;;;;;;;;;5025092;28;20108;-89
2022/05/24 08:29:40;;;;;;;8.05;4.60;;;;;;;13.70;89.38;68300.88;5011139;28;20072;-89
2022/05/24 08:32:06;;;;;;;10.82;4.20;;;;;;;;;;5026434;28;20458;-88
2022/05/24 08:34:32;;;;;;;8.57;4.50;;;;;;;;;;5026511;28;20128;-88
2022/05/24 08:36:57;;;;;;;7.50;4.63;;;;;;;;;;5007560;28;20206;-87
2022/05/24 08:39:22;;;;;;;5.88;4.63;;;;;;;13.81;89.20;68307.44;5022857;28;20449;-89
2022/05/24 08:42:25;;;;;;;10.55;4.03;;;;;;;13.97;90.25;68325.66;5026215;28;20033;-88
2022/05/24 08:50:45;;;;;;;5.72;3.15;;;;;;;;;;5026408;28;20425;-88
2022/05/24 08:53:16;;;;;;;4.90;2.78;;;;;;;14.19;84.74;68344.78;5015720;28;20061;-91
2022/05/24 08:55:43;;;;;;;6.03;2.45;;;;;;;14.23;83.52;68343.97;5038942;28;20171;-90
2022/05/24 08:58:21;;;;;;;5.80;2.55;;;;;;;14.43;84.82;68376.88;5052458;28;20041;-92
2022/05/24 09:00:46;;;;;;;7.35;2.40;;;;;;;14.63;82.71;68394.31;5052033;28;20138;-92
2022/05/24 09:03:12;;;;;;;6.95;2.20;;;;;;;14.77;82.95;68414.47;5054159;28;20044;-91
2022/05/24 09:05:57;;;;;;;5.10;2.22;;;;;;;14.68;79.95;68404.78;5052231;28;20036;-92
2022/05/24 09:08:30;;;;;;;5.20;2.00;;;;;;;;;;5054126;28;20261;-92
2022/05/24 09:11:41;;;;;;;7.82;2.30;;;;;;;14.40;79.31;68368.09;5023995;28;20679;-89
2022/05/24 09:14:11;;;;;;;4.65;1.75;;;;;;;;;;5017283;28;20049;-89
2022/05/24 09:16:43;;;;;;;3.20;1.67;;;;;;;14.30;79.79;68362.66;5027266;28;20091;-88
2022/05/24 09:19:17;;;;;;;7.13;2.13;;;;;;;;;;5004127;28;20050;-89
2022/05/24 09:21:43;;;;;;;4.82;2.10;;;;;;;14.43;80.58;68376.88;5048089;28;20042;-89
2022/05/24 09:24:43;;;;;;;6.43;2.25;;;;;;;14.72;81.97;68411.44;5022763;28;20038;-89
2022/05/24 09:27:16;;;;;;;3.28;1.80;;;;;;;;;;5012606;28;20379;-89
2022/05/24 09:29:57;;;;;;;5.93;2.08;;;;;;;14.71;78.59;68407.66;5040401;28;20049;-88
2022/05/24 09:32:28;;;;;;;6.07;1.80;;;;;;;;;;5027609;28;20382;-88
2022/05/24 09:35:11;;;;;;;4.63;2.00;;;;;;;14.54;78.74;68388.84;5041320;28;20523;-89
2022/05/24 09:37:37;;;;;;;4.03;1.70;;;;;;;14.52;79.37;68387.13;5024235;28;20084;-88
2022/05/24 09:40:03;;;;;;;5.30;1.58;;;;;;;;;;5023378;28;20145;-89
2022/05/24 09:42:34;;;;;;;4.15;1.50;;;;;;;14.42;77.70;68375.75;5025332;28;20132;-88
2022/05/24 09:45:18;;;;;;;5.25;1.67;;;;;;;14.39;77.69;68372.91;5020588;28;20073;-88
2022/05/24 09:47:43;;;;;;;3.95;1.70;;;;;;;;;;5006863;28;20038;-88
2022/05/24 09:50:18;;;;;;;4.17;1.80;;;;;;;14.57;77.83;68392.28;5006437;28;20260;-91
2022/05/24 09:53:06;;;;;;;7.03;1.90;;;;;;;14.60;77.45;68396.25;5041962;28;20284;-88
2022/05/24 09:55:53;;;;;;;4.03;2.07;;;;;;;14.67;78.16;68403.66;5017239;28;20124;-90
2022/05/24 09:58:30;;;;;;;4.70;2.10;;;;;;;14.71;77.11;68407.66;5022589;28;20064;-88
2022/05/24 10:00:57;;;;;;;4.43;2.03;;;;;;;;;;5019228;28;20038;-89
2022/05/24 10:03:33;;;;;;;6.28;2.08;;;;;;;14.90;76.81;68429.25;5023594;28;20132;-88
2022/05/24 10:06:10;;;;;;;5.82;2.40;;;;;;;15.01;76.14;68441.22;5027886;28;20040;-88
2022/05/24 10:08:41;;;;;;;5.40;3.00;;;;;;;;;;5023198;28;20057;-88
2022/05/24 10:11:33;;;;;;;5.70;2.30;;;;;;;15.53;75.36;68504.69;5016241;28;20045;-90
2022/05/24 10:14:25;;;;;;;6.10;2.75;;;;;;;15.61;73.29;68502.50;5004971;28;20041;-89
2022/05/24 10:16:56;;;;;;;7.60;4.05;;;;;;;;;;5017693;28;20501;-88
2022/05/24 10:19:27;;;;;;;8.77;4.15;;;;;;;;;;5018593;28;20065;-89
2022/05/24 10:22:35;;;;;;;6.97;3.50;;;;;;;15.36;70.87;68480.50;5021285;28;20072;-89
2022/05/24 10:25:05;;;;;;;6.20;2.22;;;;;;;;;;5045842;28;20115;-89
2022/05/24 10:27:36;;;;;;;6.53;2.40;;;;;;;15.27;73.88;68464.91;5030759;28;20033;-91
2022/05/24 10:30:09;;;;;;;4.63;2.55;;;;;;;15.16;73.45;68457.75;5021992;28;20398;-89
2022/05/24 10:38:44;;;;;;;6.68;3.67;;;;;;;;;;5028471;28;20091;-89
2022/05/24 10:41:33;;;;;;;6.05;4.10;;;;;;;14.84;74.74;68422.44;4991053;28;20088;-88
2022/05/24 10:43:59;;;;;;;;;;;;;;;14.87;74.11;68425.84;5011144;28;20068;-90
2022/05/24 10:46:39;;;;;;;9.75;5.95;;;;;;;;;;5026991;28;19943;-89
2022/05/24 10:49:21;;;;;;;6.85;5.88;;;;;;;14.84;75.19;68422.44;5038798;28;20152;-89
2022/05/24 10:51:50;;;;;;;9.32;6.47;;;;;;;;;;5035394;28;20128;-91
2022/05/24 10:54:36;;;;;;;10.65;6.95;;;;;;;14.91;75.58;68425.06;5030825;28;20045;-90
2022/05/24 10:57:04;;;;;;;7.35;6.60;;;;;;;;;;5030055;28;20045;-89
2022/05/24 10:59:29;;;;;;;9.27;7.57;;;;;;;;;;5031321;28;20038;-89
2022/05/24 11:02:03;;;;;;;9.73;8.70;;;;;;;14.93;76.06;68432.69;5028815;28;20045;-90
2022/05/24 11:04:49;;;;;;;9.73;7.72;;;;;;;;;;5032566;28;20339;-90
2022/05/24 11:07:16;;;;;;;10.35;8.40;;;;;;;;;;4997496;28;20048;-89
2022/05/24 11:09:53;;;;;;;12.45;9.18;;;;;;;15.06;74.26;68446.94;5029248;28;20418;-89
2022/05/24 11:12:21;;;;;;;10.73;7.88;;;;;;;;;;5028329;28;20052;-89
2022/05/24 11:14:51;;;;;;;10.18;8.13;;;;;;;15.31;72.90;68474.84;5022321;28;20506;-89
2022/05/24 11:17:18;;;;;;;9.60;7.43;;;;;;;15.33;72.34;68471.75;5030613;28;20048;-89
2022/05/24 11:20:04;;;;;;;13.20;8.88;;;;;;;15.30;72.83;68473.69;5027442;28;20128;-88
2022/05/24 11:22:51;;;;;;;10.80;9.00;;;;;;;;;;5029216;28;20090;-90
2022/05/24 11:45:30;;;;;;;9.35;8.35;;;;;;;;;;5119117;23;20498;-86
2022/05/24 11:48:15;;;;;;;8.50;7.70;;;;;;;14.53;72.63;68387.69;5007920;28;20046;-86
2022/05/24 11:50:40;;;;;;;8.80;7.90;;;;;;;;;;5008143;28;20053;-86
2022/05/24 11:53:31;;;;;;;10.85;8.95;;;;;;;;;;5006455;28;20041;-86
2022/05/24 11:55:56;;;;;;;12.93;11.52;;;;;;;14.78;73.85;68415.59;5000969;28;20121;-86
2022/05/24 11:58:22;;;;;;;12.18;10.90;;;;;;;14.84;73.14;68422.44;5004499;28;20128;-85
2022/05/24 12:00:57;;;;;;;13.75;10.32;;;;;;;;;;5002319;28;20418;-85
2022/05/24 12:09:18;;;;;;;8.65;6.57;;;;;;;15.24;71.97;68461.50;4991665;28;20196;-87
2022/05/24 12:11:44;;;;;;;7.20;5.22;;;;;;;;;;5000929;28;20066;-87
2022/05/24 12:14:36;;;;;;;4.93;4.18;;;;;;;15.09;74.12;68450.91;4997084;28;20105;-87
2022/05/24 12:17:01;;;;;;;7.05;4.22;;;;;;;14.85;78.82;68424.16;4988814;28;20798;-89
2022/05/24 12:19:42;;;;;;;4.57;3.67;;;;;;;;;;5022704;28;20099;-87
2022/05/24 12:22:15;;;;;;;5.38;3.90;;;;;;;14.84;83.86;68422.44;5020983;28;20088;-88
2022/05/24 12:24:41;;;;;;;5.95;3.67;;;;;;;15.03;83.83;68443.50;5004031;28;20044;-87
2022/05/24 12:27:22;;;;;;;3.67;2.40;;;;;;;;;;5006167;28;20126;-87
2022/05/24 12:29:50;;;;;;;3.03;1.00;;;;;;;15.67;73.63;68514.69;5002342;28;20533;-89
2022/05/24 12:32:18;;;;;;;2.35;0.73;;;;;;;;;;4999945;28;20629;-87
2022/05/24 12:34:43;;;;;;;1.35;0.50;;;;;;;;;;5005518;28;20052;-87
2022/05/24 12:37:30;;;;;;;1.60;0.70;;;;;;;;;;5005944;28;20117;-88
2022/05/24 12:40:05;;;;;;;1.55;0.80;;;;;;;15.96;65.45;68547.78;5005256;28;20120;-87
2022/05/24 12:42:30;;;;;;;2.25;0.70;;;;;;;;;;5014114;28;20056;-88
2022/05/24 12:45:00;;;;;;;2.15;1.05;;;;;;;16.19;65.65;68573.41;5021799;28;20437;-87
2022/05/24 12:47:26;;;;;;;1.75;0.90;;;;;;;16.32;65.65;68581.75;5006125;28;20068;-87
2022/05/24 12:49:55;;;;;;;2.28;0.93;;;;;;;16.35;63.38;68591.09;5003476;28;20065;-87
2022/05/24 12:52:22;;;;;;;;;;;;;;;16.44;63.56;68600.78;4998762;28;20298;-87
2022/05/24 12:54:51;;;;;;;4.40;1.27;;;;;;;16.74;64.62;68629.03;5001927;28;19917;-87
2022/05/24 12:57:17;;;;;;;2.85;1.05;;;;;;;;;;5000463;28;20049;-85
2022/05/24 12:59:50;;;;;;;1.75;0.90;;;;;;;;;;5003683;28;20073;-86
2022/05/24 13:02:28;;;;;;;4.13;1.15;;;;;;;17.06;59.84;68673.06;4990377;28;20122;-86
2022/05/24 13:05:17;;;;;;;2.90;1.20;;;;;;;;;;4997419;28;20034;-87
2022/05/24 13:07:42;;;;;;;;;;;;;;;;;;4995231;28;20045;-86
2022/05/24 13:10:22;;;;;;;2.25;1.00;;;;;;;16.88;62.74;68645.03;5005392;28;19918;-86
2022/05/24 13:12:54;;;;;;;3.03;1.38;;;;;;;17.16;64.24;68681.22;5002415;28;20124;-86
2022/05/24 13:15:24;;;;;;;3.03;1.13;;;;;;;17.07;63.29;68671.50;4994185;28;20046;-87
2022/05/24 13:17:55;;;;;;;1.95;0.85;;;;;;;17.08;62.15;68666.69;5005689;28;20644;-86